sensor_id;sensor_type;location;lat;lon;timestamp;P1;durP1;ratioP1;P2;durP2;ratioP2
25962;SDS011;13760;52.588;13.406;2023-04-05T00:01:27;17.15;;;8.38;;
25962;SDS011;13760;52.588;13.406;2023-04-05T00:03:53;13.70;;;8.32;;
25962;SDS011;13760;52.588;13.406;2023-04-05T00:06:20;14.48;;;7.95;;
25962;SDS011;13760;52.588;13.406;2023-04-05T00:08:50;14.30;;;7.57;;
25962;SDS011;13760;52.588;13.406;2023-04-05T00:11:23;13.25;;;7.20;;
25962;SDS011;13760;52.588;13.406;2023-04-05T00:13:50;18.23;;;7.45;;
25962;SDS011;13760;52.588;13.406;2023-04-05T00:16:16;15.52;;;7.88;;
25962;SDS011;13760;52.588;13.406;2023-04-05T00:18:42;15.48;;;8.27;;
25962;SDS011;13760;52.588;13.406;2023-04-05T00:21:15;14.90;;;7.97;;
25962;SDS011;13760;52.588;13.406;2023-04-05T00:23:42;14.27;;;8.00;;
25962;SDS011;13760;52.588;13.406;2023-04-05T00:26:09;16.55;;;8.05;;
25962;SDS011;13760;52.588;13.406;2023-04-05T00:28:38;17.10;;;8.18;;
25962;SDS011;13760;52.588;13.406;2023-04-05T00:31:04;13.48;;;7.13;;
25962;SDS011;13760;52.588;13.406;2023-04-05T00:33:29;13.25;;;6.75;;
25962;SDS011;13760;52.588;13.406;2023-04-05T00:35:55;10.63;;;6.75;;
25962;SDS011;13760;52.588;13.406;2023-04-05T00:38:21;15.55;;;7.05;;
25962;SDS011;13760;52.588;13.406;2023-04-05T00:40:46;12.52;;;6.97;;
25962;SDS011;13760;52.588;13.406;2023-04-05T00:43:12;14.57;;;6.88;;
25962;SDS011;13760;52.588;13.406;2023-04-05T00:45:38;13.65;;;7.13;;
25962;SDS011;13760;52.588;13.406;2023-04-05T00:48:04;11.63;;;6.57;;
25962;SDS011;13760;52.588;13.406;2023-04-05T00:50:30;16.98;;;7.00;;
25962;SDS011;13760;52.588;13.406;2023-04-05T00:52:56;15.70;;;6.75;;
25962;SDS011;13760;52.588;13.406;2023-04-05T00:55:22;10.82;;;5.78;;
25962;SDS011;13760;52.588;13.406;2023-04-05T00:57:48;15.57;;;6.43;;
25962;SDS011;13760;52.588;13.406;2023-04-05T01:00:14;12.40;;;6.50;;
25962;SDS011;13760;52.588;13.406;2023-04-05T01:02:44;12.35;;;6.45;;
25962;SDS011;13760;52.588;13.406;2023-04-05T01:11:22;11.00;;;5.68;;
25962;SDS011;13760;52.588;13.406;2023-04-05T01:13:50;12.13;;;5.70;;
25962;SDS011;13760;52.588;13.406;2023-04-05T01:16:21;14.63;;;5.85;;
25962;SDS011;13760;52.588;13.406;2023-04-05T01:18:47;12.82;;;5.93;;
25962;SDS011;13760;52.588;13.406;2023-04-05T01:24:10;11.77;;;5.75;;
25962;SDS011;13760;52.588;13.406;2023-04-05T01:26:45;13.20;;;6.45;;
25962;SDS011;13760;52.588;13.406;2023-04-05T01:37:36;19.63;;;9.43;;
25962;SDS011;13760;52.588;13.406;2023-04-05T01:40:04;22.90;;;9.82;;
25962;SDS011;13760;52.588;13.406;2023-04-05T01:42:30;22.13;;;10.75;;
25962;SDS011;13760;52.588;13.406;2023-04-05T01:44:56;23.27;;;7.97;;
25962;SDS011;13760;52.588;13.406;2023-04-05T01:47:22;12.50;;;6.40;;
25962;SDS011;13760;52.588;13.406;2023-04-05T01:49:48;12.70;;;6.55;;
25962;SDS011;13760;52.588;13.406;2023-04-05T01:52:13;16.25;;;6.57;;
25962;SDS011;13760;52.588;13.406;2023-04-05T01:54:39;14.35;;;6.43;;
25962;SDS011;13760;52.588;13.406;2023-04-05T01:57:05;15.35;;;6.30;;
25962;SDS011;13760;52.588;13.406;2023-04-05T01:59:30;15.05;;;6.20;;
25962;SDS011;13760;52.588;13.406;2023-04-05T02:01:56;11.05;;;5.93;;
25962;SDS011;13760;52.588;13.406;2023-04-05T02:04:22;12.32;;;6.32;;
25962;SDS011;13760;52.588;13.406;2023-04-05T02:06:47;14.50;;;6.43;;
25962;SDS011;13760;52.588;13.406;2023-04-05T02:09:13;13.90;;;5.90;;
25962;SDS011;13760;52.588;13.406;2023-04-05T02:11:38;10.52;;;5.53;;
25962;SDS011;13760;52.588;13.406;2023-04-05T02:14:04;13.88;;;6.90;;
25962;SDS011;13760;52.588;13.406;2023-04-05T02:16:29;12.95;;;6.32;;
25962;SDS011;13760;52.588;13.406;2023-04-05T02:18:57;11.02;;;6.10;;
25962;SDS011;13760;52.588;13.406;2023-04-05T02:21:23;13.23;;;6.38;;
25962;SDS011;13760;52.588;13.406;2023-04-05T02:23:50;12.85;;;5.80;;
25962;SDS011;13760;52.588;13.406;2023-04-05T02:26:18;11.13;;;5.50;;
25962;SDS011;13760;52.588;13.406;2023-04-05T02:28:45;11.45;;;5.82;;
25962;SDS011;13760;52.588;13.406;2023-04-05T02:31:11;8.60;;;5.63;;
25962;SDS011;13760;52.588;13.406;2023-04-05T02:33:38;9.52;;;5.05;;
25962;SDS011;13760;52.588;13.406;2023-04-05T02:36:04;14.90;;;5.18;;
25962;SDS011;13760;52.588;13.406;2023-04-05T02:38:31;12.18;;;5.35;;
25962;SDS011;13760;52.588;13.406;2023-04-05T02:40:57;9.30;;;5.00;;
25962;SDS011;13760;52.588;13.406;2023-04-05T02:43:23;11.77;;;5.10;;
25962;SDS011;13760;52.588;13.406;2023-04-05T02:45:49;10.52;;;4.90;;
25962;SDS011;13760;52.588;13.406;2023-04-05T02:48:15;9.05;;;4.57;;
25962;SDS011;13760;52.588;13.406;2023-04-05T02:50:41;10.10;;;4.35;;
25962;SDS011;13760;52.588;13.406;2023-04-05T02:53:11;10.63;;;4.60;;
25962;SDS011;13760;52.588;13.406;2023-04-05T02:55:37;8.13;;;4.15;;
25962;SDS011;13760;52.588;13.406;2023-04-05T02:58:05;8.30;;;4.00;;
25962;SDS011;13760;52.588;13.406;2023-04-05T03:00:32;6.85;;;4.18;;
25962;SDS011;13760;52.588;13.406;2023-04-05T03:02:57;9.18;;;4.30;;
25962;SDS011;13760;52.588;13.406;2023-04-05T03:05:23;8.40;;;4.10;;
25962;SDS011;13760;52.588;13.406;2023-04-05T03:07:49;9.02;;;4.35;;
25962;SDS011;13760;52.588;13.406;2023-04-05T03:10:16;8.10;;;4.03;;
25962;SDS011;13760;52.588;13.406;2023-04-05T03:12:46;7.00;;;3.97;;
25962;SDS011;13760;52.588;13.406;2023-04-05T03:15:12;10.10;;;3.90;;
25962;SDS011;13760;52.588;13.406;2023-04-05T03:17:38;8.27;;;3.70;;
25962;SDS011;13760;52.588;13.406;2023-04-05T03:20:04;9.02;;;3.90;;
25962;SDS011;13760;52.588;13.406;2023-04-05T03:22:31;7.13;;;4.18;;
25962;SDS011;13760;52.588;13.406;2023-04-05T03:24:57;10.85;;;4.18;;
25962;SDS011;13760;52.588;13.406;2023-04-05T03:27:23;8.10;;;4.32;;
25962;SDS011;13760;52.588;13.406;2023-04-05T03:29:50;8.48;;;4.13;;
25962;SDS011;13760;52.588;13.406;2023-04-05T03:32:15;8.10;;;4.38;;
25962;SDS011;13760;52.588;13.406;2023-04-05T03:34:41;8.20;;;4.47;;
25962;SDS011;13760;52.588;13.406;2023-04-05T03:37:07;9.80;;;4.30;;
25962;SDS011;13760;52.588;13.406;2023-04-05T03:39:33;8.60;;;4.30;;
25962;SDS011;13760;52.588;13.406;2023-04-05T03:41:59;8.98;;;4.30;;
25962;SDS011;13760;52.588;13.406;2023-04-05T03:44:25;10.88;;;4.38;;
25962;SDS011;13760;52.588;13.406;2023-04-05T03:46:50;9.57;;;4.50;;
25962;SDS011;13760;52.588;13.406;2023-04-05T03:49:16;8.13;;;4.38;;
25962;SDS011;13760;52.588;13.406;2023-04-05T03:51:43;6.72;;;3.78;;
25962;SDS011;13760;52.588;13.406;2023-04-05T03:54:10;9.73;;;4.43;;
25962;SDS011;13760;52.588;13.406;2023-04-05T03:56:36;14.85;;;4.78;;
25962;SDS011;13760;52.588;13.406;2023-04-05T03:59:02;7.97;;;4.30;;
25962;SDS011;13760;52.588;13.406;2023-04-05T04:01:28;10.65;;;3.90;;
25962;SDS011;13760;52.588;13.406;2023-04-05T04:03:54;7.82;;;4.57;;
25962;SDS011;13760;52.588;13.406;2023-04-05T04:06:24;11.05;;;4.65;;
25962;SDS011;13760;52.588;13.406;2023-04-05T04:08:54;8.52;;;4.38;;
25962;SDS011;13760;52.588;13.406;2023-04-05T04:11:21;10.02;;;4.63;;
25962;SDS011;13760;52.588;13.406;2023-04-05T04:13:46;8.85;;;4.65;;
25962;SDS011;13760;52.588;13.406;2023-04-05T04:16:12;10.90;;;5.05;;
25962;SDS011;13760;52.588;13.406;2023-04-05T04:18:37;9.75;;;5.30;;
25962;SDS011;13760;52.588;13.406;2023-04-05T04:21:03;14.93;;;5.47;;
25962;SDS011;13760;52.588;13.406;2023-04-05T04:23:32;13.52;;;6.03;;
25962;SDS011;13760;52.588;13.406;2023-04-05T04:25:58;13.73;;;5.68;;
25962;SDS011;13760;52.588;13.406;2023-04-05T04:28:27;15.80;;;6.15;;
25962;SDS011;13760;52.588;13.406;2023-04-05T04:30:54;15.40;;;6.47;;
25962;SDS011;13760;52.588;13.406;2023-04-05T04:33:19;18.08;;;6.30;;
25962;SDS011;13760;52.588;13.406;2023-04-05T04:35:45;17.23;;;6.38;;
25962;SDS011;13760;52.588;13.406;2023-04-05T04:38:11;12.90;;;6.07;;
25962;SDS011;13760;52.588;13.406;2023-04-05T04:40:42;13.75;;;6.28;;
25962;SDS011;13760;52.588;13.406;2023-04-05T04:43:15;16.23;;;6.13;;
25962;SDS011;13760;52.588;13.406;2023-04-05T04:45:50;17.85;;;6.30;;
25962;SDS011;13760;52.588;13.406;2023-04-05T04:48:18;17.02;;;6.00;;
25962;SDS011;13760;52.588;13.406;2023-04-05T04:50:45;13.30;;;5.85;;
25962;SDS011;13760;52.588;13.406;2023-04-05T04:53:11;13.20;;;5.97;;
25962;SDS011;13760;52.588;13.406;2023-04-05T04:55:38;16.05;;;6.00;;
25962;SDS011;13760;52.588;13.406;2023-04-05T04:58:06;12.55;;;6.20;;
25962;SDS011;13760;52.588;13.406;2023-04-05T05:00:40;12.80;;;5.82;;
25962;SDS011;13760;52.588;13.406;2023-04-05T05:03:08;15.05;;;6.35;;
25962;SDS011;13760;52.588;13.406;2023-04-05T05:05:35;13.80;;;6.45;;
25962;SDS011;13760;52.588;13.406;2023-04-05T05:08:06;18.23;;;6.93;;
25962;SDS011;13760;52.588;13.406;2023-04-05T05:10:38;18.20;;;6.75;;
25962;SDS011;13760;52.588;13.406;2023-04-05T05:13:03;14.85;;;7.28;;
25962;SDS011;13760;52.588;13.406;2023-04-05T05:15:29;16.83;;;6.93;;
25962;SDS011;13760;52.588;13.406;2023-04-05T05:17:55;20.63;;;7.32;;
25962;SDS011;13760;52.588;13.406;2023-04-05T05:20:23;19.73;;;7.68;;
25962;SDS011;13760;52.588;13.406;2023-04-05T05:22:52;19.10;;;7.50;;
25962;SDS011;13760;52.588;13.406;2023-04-05T05:25:18;19.05;;;7.55;;
25962;SDS011;13760;52.588;13.406;2023-04-05T05:27:47;16.35;;;7.40;;
25962;SDS011;13760;52.588;13.406;2023-04-05T05:30:13;19.95;;;6.60;;
25962;SDS011;13760;52.588;13.406;2023-04-05T05:32:39;18.88;;;7.05;;
25962;SDS011;13760;52.588;13.406;2023-04-05T05:35:05;19.20;;;6.55;;
25962;SDS011;13760;52.588;13.406;2023-04-05T05:37:32;14.13;;;6.18;;
25962;SDS011;13760;52.588;13.406;2023-04-05T05:39:58;16.25;;;5.75;;
25962;SDS011;13760;52.588;13.406;2023-04-05T05:42:24;12.32;;;5.85;;
25962;SDS011;13760;52.588;13.406;2023-04-05T05:44:51;14.80;;;6.70;;
25962;SDS011;13760;52.588;13.406;2023-04-05T05:47:17;16.83;;;6.38;;
25962;SDS011;13760;52.588;13.406;2023-04-05T05:49:43;14.80;;;5.85;;
25962;SDS011;13760;52.588;13.406;2023-04-05T05:52:08;17.33;;;5.80;;
25962;SDS011;13760;52.588;13.406;2023-04-05T05:54:34;13.95;;;5.07;;
25962;SDS011;13760;52.588;13.406;2023-04-05T05:57:00;12.02;;;5.00;;
25962;SDS011;13760;52.588;13.406;2023-04-05T05:59:26;9.82;;;5.00;;
25962;SDS011;13760;52.588;13.406;2023-04-05T06:01:54;11.43;;;4.00;;
25962;SDS011;13760;52.588;13.406;2023-04-05T06:04:20;13.15;;;4.13;;
25962;SDS011;13760;52.588;13.406;2023-04-05T06:06:46;16.15;;;5.88;;
25962;SDS011;13760;52.588;13.406;2023-04-05T06:09:13;21.40;;;5.03;;
25962;SDS011;13760;52.588;13.406;2023-04-05T06:11:42;12.25;;;4.95;;
25962;SDS011;13760;52.588;13.406;2023-04-05T06:14:07;11.98;;;4.60;;
25962;SDS011;13760;52.588;13.406;2023-04-05T06:16:33;15.80;;;4.60;;
25962;SDS011;13760;52.588;13.406;2023-04-05T06:18:59;12.10;;;4.47;;
25962;SDS011;13760;52.588;13.406;2023-04-05T06:21:25;17.52;;;4.82;;
25962;SDS011;13760;52.588;13.406;2023-04-05T06:23:52;11.73;;;4.45;;
25962;SDS011;13760;52.588;13.406;2023-04-05T06:26:18;11.70;;;5.07;;
25962;SDS011;13760;52.588;13.406;2023-04-05T06:29:15;7.97;;;4.13;;
25962;SDS011;13760;52.588;13.406;2023-04-05T06:31:40;9.40;;;4.38;;
25962;SDS011;13760;52.588;13.406;2023-04-05T06:34:07;12.98;;;4.85;;
25962;SDS011;13760;52.588;13.406;2023-04-05T06:36:33;10.90;;;3.92;;
25962;SDS011;13760;52.588;13.406;2023-04-05T06:38:59;12.00;;;4.18;;
25962;SDS011;13760;52.588;13.406;2023-04-05T06:41:25;12.15;;;4.82;;
25962;SDS011;13760;52.588;13.406;2023-04-05T06:43:51;13.45;;;4.88;;
25962;SDS011;13760;52.588;13.406;2023-04-05T06:46:23;14.55;;;5.18;;
25962;SDS011;13760;52.588;13.406;2023-04-05T06:48:53;11.98;;;4.50;;
25962;SDS011;13760;52.588;13.406;2023-04-05T06:51:19;13.32;;;4.75;;
25962;SDS011;13760;52.588;13.406;2023-04-05T06:53:45;10.80;;;4.20;;
25962;SDS011;13760;52.588;13.406;2023-04-05T06:56:10;11.23;;;4.13;;
25962;SDS011;13760;52.588;13.406;2023-04-05T06:58:36;9.75;;;4.20;;
25962;SDS011;13760;52.588;13.406;2023-04-05T07:01:02;13.50;;;4.50;;
25962;SDS011;13760;52.588;13.406;2023-04-05T07:03:28;12.38;;;4.13;;
25962;SDS011;13760;52.588;13.406;2023-04-05T07:05:56;11.80;;;4.53;;
25962;SDS011;13760;52.588;13.406;2023-04-05T07:08:26;11.32;;;4.10;;
25962;SDS011;13760;52.588;13.406;2023-04-05T07:10:59;12.73;;;4.35;;
25962;SDS011;13760;52.588;13.406;2023-04-05T07:13:30;14.00;;;4.60;;
25962;SDS011;13760;52.588;13.406;2023-04-05T07:16:00;16.90;;;4.53;;
25962;SDS011;13760;52.588;13.406;2023-04-05T07:18:27;9.57;;;4.20;;
25962;SDS011;13760;52.588;13.406;2023-04-05T07:20:58;17.25;;;4.07;;
25962;SDS011;13760;52.588;13.406;2023-04-05T07:23:24;9.10;;;3.85;;
25962;SDS011;13760;52.588;13.406;2023-04-05T07:25:51;10.45;;;4.35;;
25962;SDS011;13760;52.588;13.406;2023-04-05T07:28:17;12.50;;;4.18;;
25962;SDS011;13760;52.588;13.406;2023-04-05T07:30:43;10.27;;;4.75;;
25962;SDS011;13760;52.588;13.406;2023-04-05T07:33:08;13.45;;;4.53;;
25962;SDS011;13760;52.588;13.406;2023-04-05T07:35:34;9.90;;;4.75;;
25962;SDS011;13760;52.588;13.406;2023-04-05T07:38:00;8.95;;;4.63;;
25962;SDS011;13760;52.588;13.406;2023-04-05T07:40:26;10.93;;;4.57;;
25962;SDS011;13760;52.588;13.406;2023-04-05T07:42:52;11.57;;;4.47;;
25962;SDS011;13760;52.588;13.406;2023-04-05T07:45:18;10.57;;;4.97;;
25962;SDS011;13760;52.588;13.406;2023-04-05T07:47:43;12.38;;;4.70;;
25962;SDS011;13760;52.588;13.406;2023-04-05T07:50:10;10.55;;;4.88;;
25962;SDS011;13760;52.588;13.406;2023-04-05T07:52:39;11.02;;;5.25;;
25962;SDS011;13760;52.588;13.406;2023-04-05T07:55:06;13.63;;;5.32;;
25962;SDS011;13760;52.588;13.406;2023-04-05T07:57:35;10.20;;;4.93;;
25962;SDS011;13760;52.588;13.406;2023-04-05T08:00:01;9.60;;;4.75;;
25962;SDS011;13760;52.588;13.406;2023-04-05T08:02:28;9.73;;;4.90;;
25962;SDS011;13760;52.588;13.406;2023-04-05T08:04:54;15.13;;;4.93;;
25962;SDS011;13760;52.588;13.406;2023-04-05T08:07:21;8.55;;;4.75;;
25962;SDS011;13760;52.588;13.406;2023-04-05T08:09:47;7.85;;;4.30;;
25962;SDS011;13760;52.588;13.406;2023-04-05T08:12:15;7.22;;;4.68;;
25962;SDS011;13760;52.588;13.406;2023-04-05T08:14:41;10.43;;;4.47;;
25962;SDS011;13760;52.588;13.406;2023-04-05T08:17:07;10.35;;;4.65;;
25962;SDS011;13760;52.588;13.406;2023-04-05T08:19:33;11.75;;;4.78;;
25962;SDS011;13760;52.588;13.406;2023-04-05T08:21:58;10.50;;;4.53;;
25962;SDS011;13760;52.588;13.406;2023-04-05T08:24:24;7.93;;;4.18;;
25962;SDS011;13760;52.588;13.406;2023-04-05T08:26:50;10.38;;;4.55;;
25962;SDS011;13760;52.588;13.406;2023-04-05T08:29:15;6.65;;;4.03;;
25962;SDS011;13760;52.588;13.406;2023-04-05T08:31:42;14.00;;;5.18;;
25962;SDS011;13760;52.588;13.406;2023-04-05T08:34:08;11.00;;;4.50;;
25962;SDS011;13760;52.588;13.406;2023-04-05T08:36:33;7.60;;;4.28;;
25962;SDS011;13760;52.588;13.406;2023-04-05T08:38:59;7.75;;;4.53;;
25962;SDS011;13760;52.588;13.406;2023-04-05T08:41:25;11.13;;;4.20;;
25962;SDS011;13760;52.588;13.406;2023-04-05T08:46:21;11.80;;;4.57;;
25962;SDS011;13760;52.588;13.406;2023-04-05T08:48:50;8.40;;;4.22;;
25962;SDS011;13760;52.588;13.406;2023-04-05T08:51:20;6.75;;;4.35;;
25962;SDS011;13760;52.588;13.406;2023-04-05T08:53:47;8.02;;;4.05;;
25962;SDS011;13760;52.588;13.406;2023-04-05T08:56:26;8.77;;;4.60;;
25962;SDS011;13760;52.588;13.406;2023-04-05T08:59:01;8.52;;;4.38;;
25962;SDS011;13760;52.588;13.406;2023-04-05T09:01:32;7.75;;;4.47;;
25962;SDS011;13760;52.588;13.406;2023-04-05T09:04:01;10.43;;;4.70;;
25962;SDS011;13760;52.588;13.406;2023-04-05T09:06:53;9.48;;;4.72;;
25962;SDS011;13760;52.588;13.406;2023-04-05T09:09:21;10.75;;;4.65;;
25962;SDS011;13760;52.588;13.406;2023-04-05T09:11:48;11.32;;;4.95;;
25962;SDS011;13760;52.588;13.406;2023-04-05T09:14:14;6.28;;;4.22;;
25962;SDS011;13760;52.588;13.406;2023-04-05T09:16:40;8.40;;;4.15;;
25962;SDS011;13760;52.588;13.406;2023-04-05T09:19:07;8.25;;;4.20;;
25962;SDS011;13760;52.588;13.406;2023-04-05T09:27:04;7.55;;;3.83;;
25962;SDS011;13760;52.588;13.406;2023-04-05T09:29:30;9.02;;;3.80;;
25962;SDS011;13760;52.588;13.406;2023-04-05T09:31:55;7.45;;;4.05;;
25962;SDS011;13760;52.588;13.406;2023-04-05T09:34:21;6.40;;;4.13;;
25962;SDS011;13760;52.588;13.406;2023-04-05T09:36:48;5.53;;;3.90;;
25962;SDS011;13760;52.588;13.406;2023-04-05T09:39:14;11.98;;;4.25;;
25962;SDS011;13760;52.588;13.406;2023-04-05T09:44:28;6.15;;;3.50;;
25962;SDS011;13760;52.588;13.406;2023-04-05T09:47:18;7.38;;;3.58;;
25962;SDS011;13760;52.588;13.406;2023-04-05T09:50:23;5.82;;;3.42;;
25962;SDS011;13760;52.588;13.406;2023-04-05T09:52:48;7.72;;;3.15;;
25962;SDS011;13760;52.588;13.406;2023-04-05T09:55:17;6.63;;;3.30;;
25962;SDS011;13760;52.588;13.406;2023-04-05T09:57:54;6.88;;;3.50;;
25962;SDS011;13760;52.588;13.406;2023-04-05T10:00:20;6.85;;;3.17;;
25962;SDS011;13760;52.588;13.406;2023-04-05T10:02:49;6.82;;;4.13;;
25962;SDS011;13760;52.588;13.406;2023-04-05T10:05:17;7.15;;;3.53;;
25962;SDS011;13760;52.588;13.406;2023-04-05T10:07:43;8.55;;;3.30;;
25962;SDS011;13760;52.588;13.406;2023-04-05T10:10:12;5.97;;;3.40;;
25962;SDS011;13760;52.588;13.406;2023-04-05T10:12:40;7.68;;;3.20;;
25962;SDS011;13760;52.588;13.406;2023-04-05T10:15:09;8.25;;;3.30;;
25962;SDS011;13760;52.588;13.406;2023-04-05T10:17:38;5.75;;;3.13;;
25962;SDS011;13760;52.588;13.406;2023-04-05T10:20:27;9.60;;;3.60;;
25962;SDS011;13760;52.588;13.406;2023-04-05T10:23:01;4.30;;;3.05;;
25962;SDS011;13760;52.588;13.406;2023-04-05T10:25:35;6.90;;;3.78;;
25962;SDS011;13760;52.588;13.406;2023-04-05T10:28:32;8.35;;;3.85;;
25962;SDS011;13760;52.588;13.406;2023-04-05T10:33:34;7.40;;;3.15;;
25962;SDS011;13760;52.588;13.406;2023-04-05T10:36:28;8.43;;;3.70;;
25962;SDS011;13760;52.588;13.406;2023-04-05T10:39:39;8.80;;;3.45;;
25962;SDS011;13760;52.588;13.406;2023-04-05T10:42:19;12.50;;;3.65;;
25962;SDS011;13760;52.588;13.406;2023-04-05T10:45:00;8.05;;;3.70;;
25962;SDS011;13760;52.588;13.406;2023-04-05T10:47:29;8.27;;;3.60;;
25962;SDS011;13760;52.588;13.406;2023-04-05T10:50:02;9.13;;;3.30;;
25962;SDS011;13760;52.588;13.406;2023-04-05T10:52:30;4.20;;;2.78;;
25962;SDS011;13760;52.588;13.406;2023-04-05T10:54:58;6.55;;;3.35;;
25962;SDS011;13760;52.588;13.406;2023-04-05T10:57:27;6.82;;;3.40;;
25962;SDS011;13760;52.588;13.406;2023-04-05T10:59:53;8.63;;;3.70;;
25962;SDS011;13760;52.588;13.406;2023-04-05T11:02:19;6.93;;;3.33;;
25962;SDS011;13760;52.588;13.406;2023-04-05T11:04:51;7.97;;;3.83;;
25962;SDS011;13760;52.588;13.406;2023-04-05T11:07:23;6.32;;;3.80;;
25962;SDS011;13760;52.588;13.406;2023-04-05T11:09:50;6.28;;;3.17;;
25962;SDS011;13760;52.588;13.406;2023-04-05T11:12:16;5.28;;;3.47;;
25962;SDS011;13760;52.588;13.406;2023-04-05T11:14:42;6.82;;;3.78;;
25962;SDS011;13760;52.588;13.406;2023-04-05T11:17:23;11.85;;;3.47;;
25962;SDS011;13760;52.588;13.406;2023-04-05T11:20:04;7.78;;;3.33;;
25962;SDS011;13760;52.588;13.406;2023-04-05T11:22:35;7.55;;;3.10;;
25962;SDS011;13760;52.588;13.406;2023-04-05T11:25:00;7.38;;;3.38;;
25962;SDS011;13760;52.588;13.406;2023-04-05T11:27:34;8.98;;;3.63;;
25962;SDS011;13760;52.588;13.406;2023-04-05T11:30:05;8.90;;;3.72;;
25962;SDS011;13760;52.588;13.406;2023-04-05T11:32:38;9.13;;;3.30;;
25962;SDS011;13760;52.588;13.406;2023-04-05T11:35:06;8.13;;;3.75;;
25962;SDS011;13760;52.588;13.406;2023-04-05T11:37:53;5.43;;;3.65;;
25962;SDS011;13760;52.588;13.406;2023-04-05T11:40:28;8.00;;;3.60;;
25962;SDS011;13760;52.588;13.406;2023-04-05T11:43:02;5.30;;;3.45;;
25962;SDS011;13760;52.588;13.406;2023-04-05T11:45:32;8.02;;;3.55;;
25962;SDS011;13760;52.588;13.406;2023-04-05T11:48:00;8.43;;;3.63;;
25962;SDS011;13760;52.588;13.406;2023-04-05T11:53:15;6.75;;;3.65;;
25962;SDS011;13760;52.588;13.406;2023-04-05T11:55:43;5.65;;;3.42;;
25962;SDS011;13760;52.588;13.406;2023-04-05T11:58:11;5.80;;;3.58;;
25962;SDS011;13760;52.588;13.406;2023-04-05T12:00:37;5.05;;;3.53;;
25962;SDS011;13760;52.588;13.406;2023-04-05T12:03:04;5.93;;;3.17;;
25962;SDS011;13760;52.588;13.406;2023-04-05T12:08:16;7.93;;;4.03;;
25962;SDS011;13760;52.588;13.406;2023-04-05T12:10:42;6.47;;;3.53;;
25962;SDS011;13760;52.588;13.406;2023-04-05T12:13:08;7.47;;;3.65;;
25962;SDS011;13760;52.588;13.406;2023-04-05T12:15:37;8.43;;;3.47;;
25962;SDS011;13760;52.588;13.406;2023-04-05T12:18:12;8.77;;;3.85;;
25962;SDS011;13760;52.588;13.406;2023-04-05T12:20:39;5.28;;;3.25;;
25962;SDS011;13760;52.588;13.406;2023-04-05T12:23:05;6.78;;;3.92;;
25962;SDS011;13760;52.588;13.406;2023-04-05T12:25:30;8.63;;;3.65;;
25962;SDS011;13760;52.588;13.406;2023-04-05T12:28:02;6.57;;;3.63;;
25962;SDS011;13760;52.588;13.406;2023-04-05T12:30:33;5.47;;;3.60;;
25962;SDS011;13760;52.588;13.406;2023-04-05T12:33:08;5.63;;;3.47;;
25962;SDS011;13760;52.588;13.406;2023-04-05T12:35:33;7.72;;;3.95;;
25962;SDS011;13760;52.588;13.406;2023-04-05T12:38:00;4.85;;;3.30;;
25962;SDS011;13760;52.588;13.406;2023-04-05T12:40:29;7.45;;;3.92;;
25962;SDS011;13760;52.588;13.406;2023-04-05T12:43:03;7.88;;;3.65;;
25962;SDS011;13760;52.588;13.406;2023-04-05T12:45:31;7.18;;;3.20;;
25962;SDS011;13760;52.588;13.406;2023-04-05T12:48:03;6.05;;;3.65;;
25962;SDS011;13760;52.588;13.406;2023-04-05T12:50:35;8.57;;;3.50;;
25962;SDS011;13760;52.588;13.406;2023-04-05T12:53:05;6.97;;;3.53;;
25962;SDS011;13760;52.588;13.406;2023-04-05T12:55:37;7.38;;;3.40;;
25962;SDS011;13760;52.588;13.406;2023-04-05T12:58:09;7.15;;;3.42;;
25962;SDS011;13760;52.588;13.406;2023-04-05T13:00:35;7.22;;;3.25;;
25962;SDS011;13760;52.588;13.406;2023-04-05T13:03:01;7.60;;;3.67;;
25962;SDS011;13760;52.588;13.406;2023-04-05T13:05:27;6.10;;;3.15;;
25962;SDS011;13760;52.588;13.406;2023-04-05T13:07:54;5.93;;;3.45;;
25962;SDS011;13760;52.588;13.406;2023-04-05T13:10:22;9.18;;;3.45;;
25962;SDS011;13760;52.588;13.406;2023-04-05T13:12:49;6.07;;;3.60;;
25962;SDS011;13760;52.588;13.406;2023-04-05T13:15:15;7.60;;;3.78;;
25962;SDS011;13760;52.588;13.406;2023-04-05T13:17:42;7.50;;;3.42;;
25962;SDS011;13760;52.588;13.406;2023-04-05T13:20:13;6.70;;;3.55;;
25962;SDS011;13760;52.588;13.406;2023-04-05T13:22:40;5.63;;;3.47;;
25962;SDS011;13760;52.588;13.406;2023-04-05T13:25:06;7.57;;;3.90;;
25962;SDS011;13760;52.588;13.406;2023-04-05T13:27:32;7.03;;;3.70;;
25962;SDS011;13760;52.588;13.406;2023-04-05T13:29:57;9.93;;;3.80;;
25962;SDS011;13760;52.588;13.406;2023-04-05T13:32:23;6.80;;;3.50;;
25962;SDS011;13760;52.588;13.406;2023-04-05T13:34:49;8.02;;;3.63;;
25962;SDS011;13760;52.588;13.406;2023-04-05T13:37:14;5.65;;;3.25;;
25962;SDS011;13760;52.588;13.406;2023-04-05T13:39:40;5.68;;;3.63;;
25962;SDS011;13760;52.588;13.406;2023-04-05T13:42:06;5.68;;;3.38;;
25962;SDS011;13760;52.588;13.406;2023-04-05T13:44:31;6.53;;;3.17;;
25962;SDS011;13760;52.588;13.406;2023-04-05T13:46:57;5.57;;;3.00;;
25962;SDS011;13760;52.588;13.406;2023-04-05T13:49:22;8.80;;;3.60;;
25962;SDS011;13760;52.588;13.406;2023-04-05T13:51:48;7.68;;;3.30;;
25962;SDS011;13760;52.588;13.406;2023-04-05T13:54:14;5.22;;;3.20;;
25962;SDS011;13760;52.588;13.406;2023-04-05T13:56:40;10.43;;;3.10;;
25962;SDS011;13760;52.588;13.406;2023-04-05T13:59:05;4.47;;;2.70;;
25962;SDS011;13760;52.588;13.406;2023-04-05T14:01:34;5.57;;;3.13;;
25962;SDS011;13760;52.588;13.406;2023-04-05T14:04:00;7.75;;;3.25;;
25962;SDS011;13760;52.588;13.406;2023-04-05T14:06:25;5.40;;;3.00;;
25962;SDS011;13760;52.588;13.406;2023-04-05T14:08:52;5.43;;;3.03;;
25962;SDS011;13760;52.588;13.406;2023-04-05T14:11:20;6.13;;;2.97;;
25962;SDS011;13760;52.588;13.406;2023-04-05T14:13:46;6.07;;;3.03;;
25962;SDS011;13760;52.588;13.406;2023-04-05T14:16:13;8.75;;;3.55;;
25962;SDS011;13760;52.588;13.406;2023-04-05T14:18:39;9.63;;;3.50;;
25962;SDS011;13760;52.588;13.406;2023-04-05T14:21:04;8.57;;;3.67;;
25962;SDS011;13760;52.588;13.406;2023-04-05T14:23:30;7.07;;;3.38;;
25962;SDS011;13760;52.588;13.406;2023-04-05T14:25:56;6.70;;;3.55;;
25962;SDS011;13760;52.588;13.406;2023-04-05T14:28:21;7.25;;;3.15;;
25962;SDS011;13760;52.588;13.406;2023-04-05T14:30:47;4.97;;;2.97;;
25962;SDS011;13760;52.588;13.406;2023-04-05T14:33:13;6.88;;;3.50;;
25962;SDS011;13760;52.588;13.406;2023-04-05T14:35:40;3.97;;;2.90;;
25962;SDS011;13760;52.588;13.406;2023-04-05T14:38:08;6.97;;;3.28;;
25962;SDS011;13760;52.588;13.406;2023-04-05T14:40:34;7.47;;;3.60;;
25962;SDS011;13760;52.588;13.406;2023-04-05T14:42:59;5.97;;;3.45;;
25962;SDS011;13760;52.588;13.406;2023-04-05T14:45:25;7.53;;;3.67;;
25962;SDS011;13760;52.588;13.406;2023-04-05T14:47:52;6.20;;;3.50;;
25962;SDS011;13760;52.588;13.406;2023-04-05T14:50:17;4.43;;;3.20;;
25962;SDS011;13760;52.588;13.406;2023-04-05T14:52:44;6.38;;;3.22;;
25962;SDS011;13760;52.588;13.406;2023-04-05T14:55:09;8.60;;;3.83;;
25962;SDS011;13760;52.588;13.406;2023-04-05T14:57:39;6.22;;;3.83;;
25962;SDS011;13760;52.588;13.406;2023-04-05T15:00:08;5.63;;;3.65;;
25962;SDS011;13760;52.588;13.406;2023-04-05T15:02:35;9.30;;;3.72;;
25962;SDS011;13760;52.588;13.406;2023-04-05T15:05:04;6.03;;;3.45;;
25962;SDS011;13760;52.588;13.406;2023-04-05T15:07:30;6.32;;;2.92;;
25962;SDS011;13760;52.588;13.406;2023-04-05T15:09:56;6.15;;;2.85;;